Time;durP1;ratioP1;P1;durP2;ratioP2;P2;SDS_P1;SDS_P2;PMS_P1;PMS_P2;Temp;Humidity;BMP_temperature;BMP_pressure;BME280_temperature;BME280_humidity;BME280_pressure;Samples;Min_cycle;Max_cycle;Signal;HPM_P1;HPM_P2
2021/10/13 00:01:30;;;;;;;5.90;3.25;;;9.60;99.90;;;;;;5018159;28;20025;-92
2021/10/13 00:03:59;;;;;;;4.75;4.18;;;9.60;99.90;;;;;;5017545;28;20117;-94
2021/10/13 00:06:28;;;;;;;6.72;4.93;;;9.70;99.90;;;;;;5018406;28;20116;-92
2021/10/13 00:08:54;;;;;;;5.63;4.20;;;9.50;99.90;;;;;;5017503;28;20137;-93
2021/10/13 00:11:22;;;;;;;8.07;5.25;;;9.60;99.90;;;;;;5018496;28;20025;-92
2021/10/13 00:13:48;;;;;;;7.07;4.68;;;9.70;99.90;;;;;;5018719;28;20018;-92
2021/10/13 00:16:14;;;;;;;6.50;4.63;;;9.70;99.90;;;;;;5018027;28;20026;-93
2021/10/13 00:18:43;;;;;;;7.32;5.78;;;9.80;99.90;;;;;;5017382;28;20032;-92
2021/10/13 00:21:11;;;;;;;8.43;4.88;;;9.70;99.90;;;;;;5017075;28;20029;-92
2021/10/13 00:23:44;;;;;;;7.95;5.43;;;9.50;99.90;;;;;;5017839;28;20041;-93
2021/10/13 00:26:10;;;;;;;9.20;5.32;;;9.60;99.90;;;;;;5018692;28;20369;-94
2021/10/13 00:28:36;;;;;;;8.40;5.05;;;9.60;99.90;;;;;;5017230;28;20022;-92
2021/10/13 00:31:02;;;;;;;8.18;5.38;;;9.70;99.90;;;;;;5017237;28;20550;-93
2021/10/13 00:33:31;;;;;;;6.78;5.13;;;9.60;99.90;;;;;;5017235;28;20359;-92
2021/10/13 00:35:57;;;;;;;6.47;4.63;;;9.50;99.90;;;;;;5018141;28;20057;-92
2021/10/13 00:38:22;;;;;;;9.02;5.28;;;9.50;99.90;;;;;;5017071;28;20540;-93
2021/10/13 00:40:48;;;;;;;8.55;5.88;;;9.40;99.90;;;;;;5017217;28;20496;-93
2021/10/13 00:43:14;;;;;;;9.77;5.82;;;9.40;99.90;;;;;;5017085;28;20476;-92
2021/10/13 00:45:40;;;;;;;5.80;4.13;;;9.30;99.90;;;;;;5017681;28;20044;-92
2021/10/13 00:48:09;;;;;;;7.43;5.00;;;9.40;99.90;;;;;;5016775;28;20033;-93
2021/10/13 00:50:35;;;;;;;14.02;4.60;;;9.50;99.90;;;;;;5017124;28;20113;-92
2021/10/13 00:53:01;;;;;;;7.00;4.70;;;9.50;99.90;;;;;;5016867;28;20028;-91
2021/10/13 00:55:30;;;;;;;6.05;3.90;;;9.60;99.90;;;;;;5017759;28;20369;-92
2021/10/13 00:57:56;;;;;;;8.35;3.63;;;9.60;99.90;;;;;;5017066;28;20025;-93
2021/10/13 01:00:24;;;;;;;6.18;3.67;;;9.50;99.90;;;;;;5013845;28;20482;-92
2021/10/13 01:03:16;;;;;;;8.40;3.78;;;9.40;99.90;;;;;;5018786;28;20032;-93
2021/10/13 01:06:22;;;;;;;6.43;3.63;;;9.30;99.90;;;;;;5020516;28;20283;-93
2021/10/13 01:09:17;;;;;;;7.47;4.32;;;9.20;99.90;;;;;;5020856;28;20022;-93
2021/10/13 01:12:22;;;;;;;5.72;3.50;;;9.00;99.90;;;;;;5020901;28;20474;-91
2021/10/13 01:15:15;;;;;;;7.28;4.40;;;9.30;99.90;;;;;;5020214;28;20022;-92
2021/10/13 01:17:49;;;;;;;6.55;4.07;;;9.10;99.90;;;;;;5020291;28;20033;-92
2021/10/13 01:20:54;;;;;;;4.85;3.97;;;9.10;99.90;;;;;;5020947;28;20025;-92
2021/10/13 01:23:55;;;;;;;6.28;3.70;;;8.90;99.90;;;;;;4984212;28;20379;-93
2021/10/13 01:27:05;;;;;;;7.03;4.57;;;8.90;99.90;;;;;;5019832;28;20037;-92
2021/10/13 01:29:37;;;;;;;8.02;4.35;;;8.90;99.90;;;;;;4945478;28;20497;-92
2021/10/13 01:32:11;;;;;;;6.43;4.20;;;8.80;99.90;;;;;;5020591;28;20054;-92
2021/10/13 01:34:41;;;;;;;6.07;3.83;;;8.80;99.90;;;;;;5020547;28;20472;-91
2021/10/13 01:37:20;;;;;;;7.50;3.83;;;8.80;99.90;;;;;;5019602;28;20050;-92
2021/10/13 01:39:51;;;;;;;7.72;4.85;;;8.80;99.90;;;;;;5019497;28;20492;-91
2021/10/13 01:42:21;;;;;;;5.82;3.92;;;8.60;99.90;;;;;;5019918;28;20031;-92
2021/10/13 01:44:51;;;;;;;7.38;4.63;;;8.70;99.90;;;;;;5019542;28;20022;-93
2021/10/13 01:47:24;;;;;;;9.50;5.57;;;8.70;99.90;;;;;;5019778;28;20108;-92
2021/10/13 01:49:55;;;;;;;6.30;3.37;;;8.50;99.90;;;;;;5020275;28;20120;-92
2021/10/13 01:52:23;;;;;;;7.35;4.65;;;8.50;99.90;;;;;;5020579;28;20445;-92
2021/10/13 01:54:53;;;;;;;7.03;4.43;;;8.30;99.90;;;;;;5021035;28;20026;-92
2021/10/13 01:57:27;;;;;;;6.05;4.78;;;8.40;99.90;;;;;;5020396;28;20036;-91
2021/10/13 02:00:04;;;;;;;6.30;3.75;;;8.30;99.90;;;;;;5019894;28;20433;-92
2021/10/13 02:02:33;;;;;;;7.65;4.90;;;8.40;99.90;;;;;;5019554;28;20044;-92
2021/10/13 02:05:01;;;;;;;11.40;5.45;;;8.30;99.90;;;;;;5020368;28;20488;-93
2021/10/13 02:07:28;;;;;;;8.18;4.55;;;8.30;99.90;;;;;;5020202;28;20538;-92
2021/10/13 02:09:58;;;;;;;8.70;4.60;;;8.20;99.90;;;;;;5019879;28;20121;-93
2021/10/13 02:12:29;;;;;;;7.05;4.38;;;8.00;99.90;;;;;;5020240;28;20369;-91
2021/10/13 02:14:56;;;;;;;6.55;4.43;;;8.00;99.90;;;;;;5016227;28;20470;-92
2021/10/13 02:17:30;;;;;;;7.80;4.65;;;8.00;99.90;;;;;;5017043;28;20124;-92
2021/10/13 02:19:56;;;;;;;;;;;7.90;99.90;;;;;;5016966;28;20026;-92
2021/10/13 02:22:27;;;;;;;7.85;3.78;;;7.80;99.90;;;;;;5016839;28;19905;-93
2021/10/13 02:24:56;;;;;;;5.72;4.20;;;7.90;99.90;;;;;;5016919;28;20465;-91
2021/10/13 02:27:29;;;;;;;5.43;3.78;;;8.00;99.90;;;;;;5017327;28;20026;-93
2021/10/13 02:29:55;;;;;;;6.97;4.78;;;8.10;99.90;;;;;;5016140;28;20063;-91
2021/10/13 02:32:21;;;;;;;5.55;4.32;;;8.10;99.90;;;;;;5016777;28;20026;-91
2021/10/13 02:34:48;;;;;;;12.55;4.80;;;8.30;99.90;;;;;;5016969;28;20034;-92
2021/10/13 02:37:14;;;;;;;8.43;4.45;;;8.10;99.90;;;;;;5016387;28;20030;-92
2021/10/13 02:39:42;;;;;;;5.07;3.95;;;8.20;99.90;;;;;;5017453;28;20022;-92
2021/10/13 02:42:08;;;;;;;10.57;4.38;;;8.50;99.90;;;;;;5016864;28;20018;-92
2021/10/13 02:44:35;;;;;;;7.38;4.10;;;8.50;99.90;;;;;;5018479;28;20022;-92
2021/10/13 02:47:16;;;;;;;4.68;3.47;;;8.40;99.90;;;;;;5018935;28;20450;-92
2021/10/13 02:50:19;;;;;;;7.20;4.05;;;8.20;99.90;;;;;;5017439;28;20026;-92
2021/10/13 02:52:51;;;;;;;8.18;4.18;;;8.20;99.90;;;;;;5016963;28;20342;-91
2021/10/13 02:55:25;;;;;;;6.80;4.95;;;8.20;99.90;;;;;;5015889;28;20029;-91
2021/10/13 02:58:10;;;;;;;7.25;3.92;;;8.10;99.90;;;;;;5016551;28;20545;-92
2021/10/13 03:00:37;;;;;;;7.40;3.75;;;8.30;99.90;;;;;;5015403;28;20049;-92
2021/10/13 03:03:28;;;;;;;6.93;4.63;;;8.40;99.90;;;;;;5016081;28;20484;-92
2021/10/13 03:05:58;;;;;;;5.80;4.57;;;8.30;99.90;;;;;;5016147;28;20438;-94
2021/10/13 03:08:26;;;;;;;10.10;4.63;;;8.10;99.90;;;;;;5016660;28;20026;-93
2021/10/13 03:10:55;;;;;;;5.57;3.35;;;8.10;99.90;;;;;;5016222;28;20053;-93
2021/10/13 03:13:27;;;;;;;5.22;4.32;;;7.90;99.90;;;;;;5016499;28;20030;-93
2021/10/13 03:15:54;;;;;;;5.68;3.90;;;8.00;99.90;;;;;;5017983;28;20029;-93
2021/10/13 03:18:22;;;;;;;5.45;3.85;;;8.20;99.90;;;;;;5016624;28;20033;-92
2021/10/13 03:20:50;;;;;;;6.65;3.80;;;8.60;99.90;;;;;;5015650;28;20032;-92
2021/10/13 03:23:17;;;;;;;4.55;3.33;;;8.60;99.90;;;;;;5016406;28;20176;-94
2021/10/13 03:25:42;;;;;;;6.45;3.55;;;8.60;99.90;;;;;;5014560;28;20061;-92
2021/10/13 03:28:11;;;;;;;5.68;3.75;;;8.80;99.90;;;;;;5015514;28;20077;-92
2021/10/13 03:30:37;;;;;;;9.32;4.30;;;8.70;99.90;;;;;;5015247;28;20115;-92
2021/10/13 03:33:06;;;;;;;8.23;4.60;;;8.80;99.90;;;;;;5015307;28;20480;-93
2021/10/13 03:35:32;;;;;;;4.38;2.72;;;8.90;99.90;;;;;;5015777;28;20458;-89
2021/10/13 03:38:01;;;;;;;5.15;4.15;;;9.00;99.90;;;;;;5015666;28;20026;-93
2021/10/13 03:40:28;;;;;;;9.35;5.00;;;8.80;99.90;;;;;;5015568;28;20099;-91
2021/10/13 03:42:54;;;;;;;6.72;5.38;;;8.80;99.90;;;;;;5015734;28;20026;-92
2021/10/13 03:45:21;;;;;;;7.93;4.82;;;8.80;99.90;;;;;;5015646;28;20022;-90
2021/10/13 03:47:48;;;;;;;5.55;4.50;;;8.40;99.90;;;;;;5014793;28;20026;-92
2021/10/13 03:50:17;;;;;;;9.60;4.22;;;8.60;99.90;;;;;;5015548;28;20034;-92
2021/10/13 03:52:43;;;;;;;7.75;5.05;;;8.50;99.90;;;;;;5015420;28;20030;-92
2021/10/13 03:55:15;;;;;;;5.47;3.92;;;8.60;99.90;;;;;;5014887;28;20424;-91
2021/10/13 03:57:41;;;;;;;7.65;3.60;;;8.60;99.90;;;;;;5014937;28;20029;-92
2021/10/13 04:00:10;;;;;;;5.65;3.45;;;8.70;99.90;;;;;;5014283;28;20554;-92
2021/10/13 04:02:36;;;;;;;5.95;4.45;;;8.80;99.90;;;;;;5015214;28;20018;-92
2021/10/13 04:05:03;;;;;;;10.73;4.60;;;9.00;99.90;;;;;;5014758;28;20018;-92
2021/10/13 04:07:29;;;;;;;7.35;5.10;;;8.90;99.90;;;;;;5016204;28;20036;-93
2021/10/13 04:09:55;;;;;;;5.97;4.50;;;8.60;99.90;;;;;;5016270;28;20026;-91
2021/10/13 04:12:26;;;;;;;7.35;4.00;;;8.40;99.90;;;;;;5015956;28;20030;-93
2021/10/13 04:14:52;;;;;;;4.97;3.55;;;8.40;99.90;;;;;;5015305;28;20034;-92
2021/10/13 04:17:21;;;;;;;4.40;3.03;;;8.70;99.90;;;;;;5015785;28;20041;-92
2021/10/13 04:19:47;;;;;;;5.18;3.63;;;9.00;99.90;;;;;;5015121;28;20493;-91
2021/10/13 04:22:13;;;;;;;10.02;4.50;;;9.10;99.90;;;;;;5014876;28;20063;-92
2021/10/13 04:24:39;;;;;;;7.95;4.32;;;9.10;99.90;;;;;;5014589;28;20116;-92
2021/10/13 04:27:04;;;;;;;8.52;4.47;;;8.70;99.90;;;;;;5015069;28;20041;-92
2021/10/13 04:29:30;;;;;;;6.10;4.18;;;8.50;99.90;;;;;;5016461;28;20203;-92
2021/10/13 04:31:56;;;;;;;7.43;4.55;;;8.40;99.90;;;;;;5016758;28;20037;-91
2021/10/13 04:34:22;;;;;;;8.52;5.75;;;8.40;99.90;;;;;;5016477;28;20113;-94
2021/10/13 04:36:48;;;;;;;8.65;5.28;;;8.40;99.90;;;;;;5015229;28;20029;-93
2021/10/13 04:39:14;;;;;;;5.95;3.03;;;8.40;99.90;;;;;;5015296;28;20025;-93
2021/10/13 04:41:40;;;;;;;9.93;5.72;;;8.40;99.90;;;;;;5015900;28;20101;-92
2021/10/13 04:44:06;;;;;;;6.97;3.97;;;8.60;99.90;;;;;;5015983;28;20115;-93
2021/10/13 04:46:32;;;;;;;12.68;6.32;;;8.70;99.90;;;;;;5017770;28;20105;-92
2021/10/13 04:48:59;;;;;;;8.70;5.95;;;8.70;99.90;;;;;;5016882;28;20381;-93
2021/10/13 04:51:25;;;;;;;11.68;6.18;;;8.80;99.90;;;;;;5016168;28;20026;-93
2021/10/13 04:53:51;;;;;;;9.48;6.13;;;8.70;99.90;;;;;;5016464;28;20113;-93
2021/10/13 04:56:19;;;;;;;8.13;4.50;;;8.60;99.90;;;;;;5016426;28;20410;-92
2021/10/13 04:58:47;;;;;;;11.25;5.25;;;8.60;99.90;;;;;;5018970;28;20060;-93
2021/10/13 05:01:13;;;;;;;11.55;5.95;;;8.80;99.90;;;;;;5019033;28;20030;-91
2021/10/13 05:03:39;;;;;;;8.82;4.90;;;8.70;99.90;;;;;;5019359;28;20028;-93
2021/10/13 05:06:05;;;;;;;11.95;5.75;;;8.90;99.90;;;;;;5019742;28;20018;-92
2021/10/13 05:14:41;;;;;;;7.68;4.20;;;8.60;99.90;;;;;;5037622;28;20073;-92
2021/10/13 05:17:07;;;;;;;9.30;6.20;;;8.50;99.90;;;;;;5020293;28;20493;-93
2021/10/13 05:19:33;;;;;;;11.27;6.63;;;8.70;99.90;;;;;;5019197;28;20041;-93
2021/10/13 05:21:58;;;;;;;8.48;6.38;;;8.70;99.90;;;;;;5017941;28;20025;-91
2021/10/13 05:24:24;;;;;;;15.18;6.68;;;8.70;99.90;;;;;;5017446;28;20024;-91
2021/10/13 05:26:50;;;;;;;8.90;5.22;;;8.70;99.90;;;;;;5017689;28;20396;-93
2021/10/13 05:29:16;;;;;;;7.13;5.07;;;8.70;99.90;;;;;;5017547;28;20067;-92
2021/10/13 05:31:41;;;;;;;8.15;5.32;;;8.80;99.90;;;;;;5017062;28;20068;-92
2021/10/13 05:34:07;;;;;;;14.27;6.95;;;8.80;99.90;;;;;;5016895;28;20026;-91
2021/10/13 05:36:33;;;;;;;13.63;6.57;;;8.70;99.90;;;;;;5019204;28;20121;-91
2021/10/13 05:38:59;;;;;;;15.05;6.72;;;8.80;99.90;;;;;;5018766;28;20026;-92
2021/10/13 05:41:24;;;;;;;11.18;6.25;;;8.60;99.90;;;;;;5016718;28;20033;-92
2021/10/13 05:43:50;;;;;;;11.23;6.97;;;8.70;99.90;;;;;;5016905;28;20079;-91
2021/10/13 05:46:16;;;;;;;7.18;5.35;;;8.50;99.90;;;;;;5016602;28;20040;-91
2021/10/13 05:48:42;;;;;;;15.27;7.93;;;8.60;99.90;;;;;;5017125;28;20028;-90
2021/10/13 05:51:08;;;;;;;13.77;7.55;;;8.70;99.90;;;;;;5019967;28;20029;-91
2021/10/13 05:53:34;;;;;;;27.13;14.10;;;8.70;99.90;;;;;;5019951;28;20025;-92
2021/10/13 05:55:59;;;;;;;17.83;10.57;;;8.70;99.90;;;;;;5019676;28;20164;-91
2021/10/13 05:58:26;;;;;;;45.72;12.77;;;8.70;99.90;;;;;;5020864;28;20031;-92
2021/10/13 06:00:53;;;;;;;55.00;10.10;;;8.60;99.90;;;;;;5019693;28;20036;-92
2021/10/13 06:03:20;;;;;;;22.08;7.05;;;8.70;99.90;;;;;;5019696;28;20021;-91
2021/10/13 06:05:47;;;;;;;69.00;14.13;;;8.80;99.90;;;;;;5019428;28;20022;-92
2021/10/13 06:08:13;;;;;;;89.63;14.75;;;8.90;99.90;;;;;;5019376;28;20499;-90
2021/10/13 06:10:39;;;;;;;24.73;8.57;;;8.80;99.90;;;;;;5019590;28;20033;-92
2021/10/13 06:13:05;;;;;;;17.42;6.38;;;8.80;99.90;;;;;;5020908;28;20040;-91
2021/10/13 06:15:34;;;;;;;29.42;14.40;;;8.90;99.90;;;;;;5020033;28;20030;-92
2021/10/13 06:18:10;;;;;;;32.63;15.63;;;8.90;99.90;;;;;;5020990;28;20093;-91
2021/10/13 06:20:36;;;;;;;21.75;10.80;;;9.10;99.90;;;;;;5025779;28;20033;-92
2021/10/13 06:23:03;;;;;;;15.43;8.25;;;9.10;99.90;;;;;;5023556;28;20159;-91
2021/10/13 06:25:29;;;;;;;12.63;8.27;;;8.90;99.90;;;;;;5020115;28;20025;-92
2021/10/13 06:27:55;;;;;;;110.50;15.35;;;8.90;99.90;;;;;;5019755;28;20045;-91
2021/10/13 06:30:21;;;;;;;18.17;8.05;;;8.90;99.90;;;;;;5019611;28;20029;-92
2021/10/13 06:32:47;;;;;;;11.90;7.10;;;9.10;99.90;;;;;;5018704;28;20032;-90
2021/10/13 06:35:13;;;;;;;38.83;8.38;;;9.10;99.90;;;;;;5019337;28;20044;-91
2021/10/13 06:37:38;;;;;;;17.17;6.32;;;9.30;99.90;;;;;;5019190;28;20532;-90
2021/10/13 06:40:05;;;;;;;17.60;8.35;;;9.40;99.90;;;;;;5019202;28;20444;-91
2021/10/13 06:42:31;;;;;;;17.75;8.95;;;9.20;99.90;;;;;;5019508;28;20359;-90
2021/10/13 06:44:56;;;;;;;15.40;8.60;;;9.20;99.90;;;;;;5019256;28;20029;-91
2021/10/13 06:47:22;;;;;;;17.85;9.68;;;9.30;99.90;;;;;;5019272;28;20079;-91
2021/10/13 06:49:48;;;;;;;16.52;6.05;;;9.30;99.90;;;;;;5019022;28;20112;-90
2021/10/13 06:52:14;;;;;;;10.30;6.13;;;9.40;99.90;;;;;;5019640;28;20036;-90
2021/10/13 06:54:39;;;;;;;13.43;6.85;;;9.50;99.90;;;;;;5019204;28;20508;-91
2021/10/13 06:57:05;;;;;;;9.82;6.40;;;9.40;99.90;;;;;;5018957;28;20120;-90
2021/10/13 06:59:31;;;;;;;15.60;6.63;;;9.50;99.90;;;;;;5035564;28;20080;-91
2021/10/13 07:01:56;;;;;;;10.75;6.50;;;9.60;99.90;;;;;;5018877;28;20036;-91
2021/10/13 07:04:22;;;;;;;13.75;6.38;;;9.50;99.90;;;;;;5019055;28;20156;-90
2021/10/13 07:06:48;;;;;;;11.88;6.90;;;9.50;99.90;;;;;;5019189;28;20018;-90
2021/10/13 07:09:14;;;;;;;9.15;5.10;;;9.50;99.90;;;;;;5018929;28;20053;-91
2021/10/13 07:11:39;;;;;;;16.30;7.30;;;9.60;99.90;;;;;;5018718;28;20026;-90
2021/10/13 07:14:06;;;;;;;14.82;6.65;;;9.80;99.90;;;;;;5019168;28;20525;-91
2021/10/13 07:16:32;;;;;;;11.48;5.82;;;9.80;99.90;;;;;;5018554;28;20025;-91
2021/10/13 07:18:58;;;;;;;84.47;12.60;;;9.60;99.90;;;;;;5018407;28;20039;-91
2021/10/13 07:21:23;;;;;;;76.45;13.77;;;9.70;99.90;;;;;;5018065;28;20068;-89
2021/10/13 07:23:52;;;;;;;12.48;6.60;;;9.80;99.90;;;;;;5019047;28;20128;-91
2021/10/13 07:26:18;;;;;;;11.30;8.02;;;9.80;99.90;;;;;;5018231;28;20022;-91
2021/10/13 07:28:44;;;;;;;19.17;7.95;;;9.70;99.90;;;;;;5019673;28;20052;-90
2021/10/13 07:31:10;;;;;;;22.85;8.10;;;9.60;99.90;;;;;;5026594;28;20031;-90
2021/10/13 07:33:36;;;;;;;26.83;8.23;;;9.40;99.90;;;;;;5024194;28;20067;-88
2021/10/13 07:36:03;;;;;;;15.13;7.97;;;9.30;99.90;;;;;;5019736;28;20108;-88
2021/10/13 07:38:29;;;;;;;18.77;6.60;;;9.60;99.90;;;;;;5018648;28;20037;-88
2021/10/13 07:40:55;;;;;;;15.52;7.30;;;9.80;99.90;;;;;;5017088;28;20033;-88
2021/10/13 07:43:21;;;;;;;19.63;7.18;;;10.20;99.90;;;;;;5016885;28;20021;-89
2021/10/13 07:45:48;;;;;;;62.10;10.40;;;10.30;99.90;;;;;;5017409;28;20021;-89
2021/10/13 07:48:14;;;;;;;13.00;7.13;;;10.30;99.90;;;;;;5017274;28;20029;-88
2021/10/13 07:50:39;;;;;;;12.90;6.22;;;10.20;99.90;;;;;;5017490;28;20025;-88
2021/10/13 07:53:05;;;;;;;16.88;6.30;;;10.30;99.90;;;;;;5018290;28;20461;-88
2021/10/13 07:55:35;;;;;;;11.88;6.28;;;10.40;99.90;;;;;;5017208;28;20038;-88
2021/10/13 07:58:00;;;;;;;13.02;5.90;;;10.30;99.90;;;;;;5017150;28;20036;-89
2021/10/13 08:00:26;;;;;;;11.10;5.72;;;10.20;99.90;;;;;;5013647;28;20042;-89
2021/10/13 08:02:53;;;;;;;13.07;6.10;;;10.20;99.90;;;;;;5013480;28;20076;-89
2021/10/13 08:05:19;;;;;;;15.20;6.90;;;10.30;99.90;;;;;;5014621;28;20032;-89
2021/10/13 08:07:46;;;;;;;41.63;7.95;;;10.30;99.90;;;;;;5013787;28;20030;-88
2021/10/13 08:10:13;;;;;;;18.38;6.68;;;10.30;99.90;;;;;;5013414;28;20057;-89
2021/10/13 08:12:38;;;;;;;14.68;6.70;;;10.40;99.90;;;;;;5013173;28;20025;-89
2021/10/13 08:15:05;;;;;;;11.73;5.80;;;10.40;99.90;;;;;;5013950;28;20026;-89
2021/10/13 08:17:31;;;;;;;14.38;5.93;;;10.40;99.90;;;;;;5013705;28;20026;-90
2021/10/13 08:19:57;;;;;;;14.32;5.85;;;10.40;99.90;;;;;;5013461;28;20440;-90
2021/10/13 08:22:23;;;;;;;14.57;6.03;;;10.30;99.90;;;;;;5014070;28;20509;-89
2021/10/13 08:24:49;;;;;;;13.05;6.72;;;10.10;99.90;;;;;;5013401;28;20018;-91
2021/10/13 08:27:15;;;;;;;10.82;5.22;;;10.20;99.90;;;;;;5013837;28;20109;-90
2021/10/13 08:29:41;;;;;;;15.20;6.93;;;10.10;99.90;;;;;;5013772;28;20038;-89
2021/10/13 08:32:07;;;;;;;13.82;5.50;;;10.20;99.90;;;;;;5014168;28;20072;-88
2021/10/13 08:34:33;;;;;;;14.55;6.10;;;10.60;99.90;;;;;;5014572;28;20482;-88
2021/10/13 08:37:01;;;;;;;12.88;6.13;;;11.10;99.90;;;;;;5015753;28;20164;-89
2021/10/13 08:39:27;;;;;;;16.38;5.70;;;11.00;99.90;;;;;;5014234;28;20079;-88
2021/10/13 08:41:52;;;;;;;15.88;6.60;;;10.80;99.90;;;;;;5013300;28;20018;-88
2021/10/13 08:44:18;;;;;;;11.05;6.03;;;11.00;99.90;;;;;;5013148;28;20022;-89
2021/10/13 08:46:44;;;;;;;11.85;5.78;;;11.20;99.90;;;;;;5012838;28;20032;-89
2021/10/13 08:49:10;;;;;;;15.13;7.18;;;11.30;99.90;;;;;;5013506;28;20030;-89
2021/10/13 08:51:38;;;;;;;9.57;4.97;;;11.30;99.90;;;;;;5012719;28;20030;-89
2021/10/13 08:54:05;;;;;;;12.30;4.68;;;11.30;99.90;;;;;;5017520;28;20499;-90
2021/10/13 08:56:31;;;;;;;14.80;6.70;;;11.20;99.90;;;;;;5012924;28;20028;-89
2021/10/13 08:58:56;;;;;;;14.20;5.25;;;10.80;99.90;;;;;;5012836;28;20409;-89
2021/10/13 09:01:22;;;;;;;9.55;4.43;;;10.90;99.90;;;;;;5012565;28;20029;-89
2021/10/13 09:03:59;;;;;;;17.77;6.95;;;11.10;99.90;;;;;;5012505;28;20034;-88
2021/10/13 09:06:27;;;;;;;10.88;4.70;;;11.20;99.90;;;;;;5012557;28;20022;-88
2021/10/13 09:09:01;;;;;;;12.32;4.93;;;11.40;99.90;;;;;;5012519;28;20497;-89
2021/10/13 09:11:39;;;;;;;9.43;4.63;;;11.50;99.90;;;;;;5012993;28;20026;-89
2021/10/13 09:14:12;;;;;;;148.98;17.13;;;11.50;99.90;;;;;;5012734;28;20030;-88
2021/10/13 09:16:49;;;;;;;36.75;6.35;;;11.80;99.90;;;;;;5012586;28;20076;-90
2021/10/13 09:19:16;;;;;;;17.52;7.40;;;12.00;99.90;;;;;;5012882;28;20404;-88
2021/10/13 09:21:49;;;;;;;14.35;6.03;;;11.60;99.90;;;;;;5012442;28;20022;-89
2021/10/13 09:24:15;;;;;;;13.55;6.22;;;11.20;99.90;;;;;;5016463;28;20076;-88
2021/10/13 09:26:40;;;;;;;12.27;6.20;;;11.10;99.90;;;;;;5016617;28;20021;-89
2021/10/13 09:29:07;;;;;;;12.80;5.40;;;11.10;99.90;;;;;;5016430;28;20108;-89
2021/10/13 09:31:33;;;;;;;14.52;5.55;;;11.00;99.90;;;;;;5016801;28;20088;-89
2021/10/13 09:34:02;;;;;;;19.42;7.40;;;11.10;99.90;;;;;;5016656;28;20034;-89
2021/10/13 09:36:40;;;;;;;15.95;7.03;;;11.00;99.90;;;;;;5017047;28;20382;-89
2021/10/13 09:39:14;;;;;;;13.60;6.00;;;10.90;99.90;;;;;;5016154;28;20026;-89
2021/10/13 09:41:59;;;;;;;;;;;10.90;99.90;;;;;;5016691;28;20025;-89
2021/10/13 09:44:26;;;;;;;15.65;6.05;;;11.00;99.90;;;;;;5016536;28;19910;-90
2021/10/13 09:46:57;;;;;;;12.27;5.05;;;11.70;99.90;;;;;;5016347;28;20061;-89
2021/10/13 09:49:33;;;;;;;11.45;4.80;;;12.20;99.90;;;;;;5016215;28;20025;-89
2021/10/13 09:52:09;;;;;;;9.15;5.10;;;12.80;99.90;;;;;;5016738;28;20026;-88
2021/10/13 09:54:36;;;;;;;7.20;4.38;;;13.40;99.90;;;;;;5016395;28;20064;-89
2021/10/13 09:57:22;;;;;;;10.55;4.05;;;13.50;99.90;;;;;;5016304;28;20117;-89
2021/10/13 09:59:59;;;;;;;9.25;3.60;;;13.60;99.90;;;;;;5016440;28;20405;-89
2021/10/13 10:02:30;;;;;;;9.13;3.90;;;14.00;99.90;;;;;;5016381;28;20028;-91
2021/10/13 10:05:05;;;;;;;9.27;3.25;;;13.90;99.90;;;;;;5016289;28;20052;-89
2021/10/13 10:07:30;;;;;;;11.32;3.72;;;13.40;99.90;;;;;;5016413;28;20026;-89
2021/10/13 10:10:12;;;;;;;10.32;3.42;;;13.10;99.90;;;;;;5015440;28;20033;-89
2021/10/13 10:13:10;;;;;;;7.55;3.20;;;13.00;99.90;;;;;;5015974;28;20056;-88
2021/10/13 10:15:41;;;;;;;6.68;2.10;;;13.10;99.90;;;;;;5015864;28;20057;-88
2021/10/13 10:18:26;;;;;;;7.88;2.30;;;13.00;99.90;;;;;;5016777;28;20483;-87
2021/10/13 10:20:53;;;;;;;7.40;1.77;;;13.00;99.90;;;;;;5015208;28;20022;-88
2021/10/13 10:23:31;;;;;;;4.93;1.90;;;12.90;99.90;;;;;;5017645;28;20025;-89
2021/10/13 10:26:01;;;;;;;4.40;1.50;;;12.80;99.90;;;;;;5016012;28;20515;-88
2021/10/13 10:28:48;;;;;;;5.90;1.38;;;13.10;99.90;;;;;;5015824;28;20409;-87
2021/10/13 10:31:36;;;;;;;3.92;1.75;;;14.00;99.90;;;;;;5016144;28;20034;-87
2021/10/13 10:34:05;;;;;;;3.90;1.50;;;13.90;99.90;;;;;;5014911;28;20117;-86
2021/10/13 10:36:34;;;;;;;6.28;1.50;;;13.50;99.90;;;;;;5016095;28;20034;-87
2021/10/13 10:39:01;;;;;;;7.60;1.50;;;13.40;99.90;;;;;;5016225;28;20037;-87
2021/10/13 10:41:48;;;;;;;7.03;1.98;;;13.10;99.90;;;;;;5016484;28;20029;-85
2021/10/13 10:44:31;;;;;;;4.43;2.00;;;12.80;99.90;;;;;;5015537;28;20037;-87
2021/10/13 10:47:01;;;;;;;7.32;2.25;;;12.60;99.90;;;;;;5016176;28;20393;-85
2021/10/13 10:49:46;;;;;;;9.35;1.90;;;13.60;99.90;;;;;;5015664;28;20021;-86
2021/10/13 10:52:25;;;;;;;3.55;0.93;;;14.20;99.90;;;;;;5015671;28;20394;-85
2021/10/13 10:55:01;;;;;;;7.95;1.10;;;13.90;99.90;;;;;;5016380;28;20037;-86
2021/10/13 10:57:33;;;;;;;3.60;0.98;;;13.70;99.90;;;;;;5015193;28;20014;-86
2021/10/13 11:00:02;;;;;;;2.97;0.98;;;13.70;99.90;;;;;;5014809;28;20045;-85
2021/10/13 11:02:28;;;;;;;7.30;1.48;;;13.60;99.90;;;;;;5014996;28;20030;-85
2021/10/13 11:05:05;;;;;;;3.70;1.10;;;13.10;99.90;;;;;;5015143;28;20040;-85
2021/10/13 11:07:32;;;;;;;3.67;1.27;;;12.80;99.90;;;;;;5014797;28;20025;-85
2021/10/13 11:10:03;;;;;;;8.80;1.48;;;12.60;99.90;;;;;;5015366;28;20454;-85
2021/10/13 11:12:52;;;;;;;6.15;1.10;;;12.50;99.90;;;;;;5013989;28;20026;-85
2021/10/13 11:15:22;;;;;;;7.05;1.40;;;12.30;99.90;;;;;;5014032;28;20025;-85
2021/10/13 11:17:48;;;;;;;4.65;1.30;;;12.20;99.90;;;;;;5013827;28;20026;-85
2021/10/13 11:20:18;;;;;;;5.88;1.15;;;12.20;99.90;;;;;;5013752;28;20033;-85
2021/10/13 11:22:44;;;;;;;2.38;1.10;;;12.20;99.90;;;;;;5013785;28;20022;-85
2021/10/13 11:25:15;;;;;;;4.15;1.23;;;12.50;99.90;;;;;;5014115;28;20029;-85
2021/10/13 11:27:41;;;;;;;4.10;1.13;;;12.70;99.90;;;;;;5013717;28;20080;-86
2021/10/13 11:30:17;;;;;;;4.32;1.40;;;13.40;99.90;;;;;;5014530;28;20025;-86
2021/10/13 11:32:43;;;;;;;5.82;2.60;;;15.10;99.90;;;;;;5013675;28;20036;-86
2021/10/13 11:35:09;;;;;;;4.60;1.10;;;16.50;99.90;;;;;;5013605;28;20025;-86
2021/10/13 11:37:35;;;;;;;3.70;1.13;;;16.60;99.90;;;;;;5013816;28;20061;-85
2021/10/13 11:40:01;;;;;;;2.42;0.88;;;17.60;99.90;;;;;;5013786;28;20052;-86
2021/10/13 11:42:31;;;;;;;5.05;1.40;;;18.10;99.90;;;;;;5013410;28;20473;-85
2021/10/13 11:44:56;;;;;;;3.53;0.98;;;16.80;99.90;;;;;;5014755;28;20014;-87
2021/10/13 11:47:35;;;;;;;2.45;0.88;;;15.20;99.90;;;;;;5012777;28;20026;-86
2021/10/13 11:50:07;;;;;;;3.80;1.00;;;14.20;99.90;;;;;;5013389;28;20030;-87
2021/10/13 11:52:35;;;;;;;4.10;0.98;;;13.10;99.90;;;;;;5014171;28;20116;-87
2021/10/13 11:55:04;;;;;;;1.85;0.98;;;12.80;99.90;;;;;;5013374;28;20034;-87
2021/10/13 11:57:30;;;;;;;1.20;0.60;;;12.50;99.90;;;;;;5013727;28;20030;-87
2021/10/13 12:00:24;;;;;;;1.95;0.70;;;12.40;99.90;;;;;;5013099;28;20057;-87
2021/10/13 12:02:55;;;;;;;2.15;0.77;;;12.40;99.90;;;;;;5014043;28;20021;-87
2021/10/13 12:05:32;;;;;;;3.38;1.10;;;13.10;99.90;;;;;;5013261;28;20064;-86
2021/10/13 12:08:03;;;;;;;3.15;1.48;;;14.40;99.90;;;;;;5013987;28;20045;-87
2021/10/13 12:10:53;;;;;;;3.38;1.10;;;16.20;99.90;;;;;;5013471;28;20025;-87
2021/10/13 12:13:27;;;;;;;3.38;1.23;;;17.40;99.90;;;;;;5012912;28;20030;-87
2021/10/13 12:16:11;;;;;;;2.50;0.93;;;18.10;99.90;;;;;;5014203;28;20414;-87
2021/10/13 12:18:45;;;;;;;1.92;0.93;;;16.50;99.90;;;;;;5013769;28;20034;-87
2021/10/13 12:21:17;;;;;;;6.43;1.50;;;15.00;99.90;;;;;;5013896;28;20060;-87
2021/10/13 12:23:59;;;;;;;2.22;0.98;;;13.80;99.90;;;;;;5013295;28;20486;-87
2021/10/13 12:26:28;;;;;;;5.28;1.27;;;13.10;99.90;;;;;;5013700;28;20355;-87
2021/10/13 12:29:05;;;;;;;3.28;1.10;;;12.60;99.90;;;;;;5013571;28;20022;-87
2021/10/13 12:31:33;;;;;;;3.35;0.95;;;12.30;99.90;;;;;;5014056;28;20026;-86
2021/10/13 12:34:05;;;;;;;4.03;1.05;;;12.20;99.90;;;;;;5013119;28;20032;-87
2021/10/13 12:36:40;;;;;;;3.08;1.05;;;12.10;99.90;;;;;;5012926;28;20486;-86
2021/10/13 12:39:11;;;;;;;3.95;1.20;;;12.00;99.90;;;;;;5012642;28;20033;-88
2021/10/13 12:41:40;;;;;;;3.28;1.00;;;11.90;99.90;;;;;;5012715;28;20026;-87
2021/10/13 12:44:17;;;;;;;2.67;1.00;;;11.70;99.90;;;;;;5012976;28;20029;-86
2021/10/13 12:47:01;;;;;;;2.85;1.02;;;11.60;99.90;;;;;;5014222;28;20022;-86
2021/10/13 12:49:36;;;;;;;2.58;0.73;;;12.80;99.90;;;;;;5012584;28;20052;-87
2021/10/13 12:52:05;;;;;;;2.17;0.80;;;13.40;99.90;;;;;;5012873;28;20125;-86
2021/10/13 12:54:36;;;;;;;3.03;1.25;;;13.30;99.90;;;;;;5012456;28;20064;-86
2021/10/13 12:57:04;;;;;;;3.78;1.02;;;13.10;99.90;;;;;;5012173;28;20061;-87
2021/10/13 12:59:30;;;;;;;4.60;1.15;;;13.70;99.90;;;;;;5014830;28;20188;-87
2021/10/13 13:01:57;;;;;;;4.90;2.30;;;16.10;99.90;;;;;;5014437;28;20113;-87
2021/10/13 13:04:23;;;;;;;4.35;1.27;;;18.10;99.90;;;;;;5013754;28;20026;-87
2021/10/13 13:06:49;;;;;;;2.67;0.95;;;19.40;99.90;;;;;;5013545;28;20083;-87
2021/10/13 13:09:15;;;;;;;2.92;0.80;;;20.60;99.90;;;;;;5012751;28;20041;-88